Ana Sayfa
METAR-TAF:

METAR-TAF

Havaalanları :

Vientiane, Laos

Enlem: 17-57N, Boylam: 102-34E, yükseklik: 171 m

Güncel hava durumu gözlemi

Rapor saat 23:30 UTC de 32 dakika önce yapıldı.
Rüzgar batı/kuzeybatıdan 2 kt
Sıcaklık 19°C
Nem 100%
Basınç 1016 hPa
Görüş mesafesi: 4000 m
5000 ft yükseklikte parçalı çok bulutlu
Pus

METAR: VLVT 192330Z 30002KT 4000 BR BKN050 19/19 Q1016 NOSIG

Saat: 07:02 (00:02 UTC)

Tahmin

Rapor saat 23:00 UTC de 1 saat ve 2 dakika önce yapıldı.
Ayın 20'si saat 00 UTC'den ayın 20'si saat 24 UTC'ye kadar geçerli Tahmin
Rüzgar doğu/güneydoğudan 4 kt
Görüş mesafesi: 8000 m
2000 ft yükseklikte az bulutlu
5000 ft yükseklikte parçalı bulutlu

TAF: VLVT 192300Z 2000/2024 12004KT 8000 FEW020 SCT050

4.000'den fazla havaalanı için hava durumu gözlemleri ve tahminleri (METAR ve TAF raporları).

Kullanılabilir istasyonlar harita üzerinde sarı ve kırmızı noktalarla gösterilir.

İstasyonun adını görmek için fareyi noktanın üzerinde gezdirin.

Sonrasında hava gözlem ve tahminlerini görmek için tıklayın.

Haritayı değiştirmek için: yaklaştırmak için siyah artı işaretli yeşil düğmeye ve uzaklaştırmak için de eksi işaretli düğmeye hızla tıklayın; bitişik haritalar için yeşil okları kullanın.


METAR-TAF: